createdAt,value
2018-02-25T00:01:43.163Z,58.64
2018-02-25T00:04:12.250Z,58.80
2018-02-25T00:06:41.141Z,59.05
2018-02-25T00:09:10.045Z,59.24
2018-02-25T00:11:38.919Z,59.30
2018-02-25T00:14:07.808Z,58.91
2018-02-25T00:16:36.913Z,59.63
2018-02-25T00:19:05.630Z,59.77
2018-02-25T00:21:34.670Z,59.71
2018-02-25T00:24:03.575Z,60.10
2018-02-25T00:26:32.491Z,59.38
2018-02-25T00:29:01.369Z,59.47
2018-02-25T00:31:30.258Z,59.30
2018-02-25T00:33:58.986Z,60.19
2018-02-25T00:36:28.030Z,59.98
2018-02-25T00:38:57.303Z,59.42
2018-02-25T00:41:26.626Z,59.80
2018-02-25T00:43:55.517Z,60.09
2018-02-25T00:46:24.625Z,60.53
2018-02-25T00:48:53.721Z,60.51
2018-02-25T00:51:22.586Z,60.44
2018-02-25T00:53:51.706Z,61.45
2018-02-25T00:56:20.796Z,63.87
2018-02-25T00:58:49.691Z,61.05
2018-02-25T01:01:18.600Z,59.83
2018-02-25T01:03:47.453Z,59.93
2018-02-25T01:06:16.378Z,60.23
2018-02-25T01:08:45.243Z,61.88
2018-02-25T01:11:14.131Z,61.75
2018-02-25T01:13:43.297Z,61.02
2018-02-25T01:16:12.129Z,61.13
2018-02-25T01:18:41.404Z,61.83
2018-02-25T01:21:10.306Z,60.71
2018-02-25T01:23:39.359Z,61.33
2018-02-25T01:26:08.340Z,60.94
2018-02-25T01:28:37.121Z,61.44
2018-02-25T01:31:06.013Z,61.20
2018-02-25T01:33:42.146Z,61.65
2018-02-25T01:36:10.926Z,61.21
2018-02-25T01:38:39.642Z,61.84
2018-02-25T01:41:09.462Z,63.22
2018-02-25T01:43:38.257Z,61.57
2018-02-25T01:46:07.401Z,64.38
2018-02-25T01:48:36.294Z,63.06
2018-02-25T01:51:05.754Z,64.51
2018-02-25T01:53:34.599Z,63.32
2018-02-25T01:56:03.309Z,62.91
2018-02-25T01:58:32.268Z,63.15
2018-02-25T02:01:01.376Z,64.50
2018-02-25T02:03:30.425Z,63.92
2018-02-25T02:05:59.565Z,63.50
2018-02-25T02:08:28.452Z,64.07
2018-02-25T02:11:03.922Z,62.79
2018-02-25T02:13:32.987Z,62.44
2018-02-25T02:16:02.274Z,62.68
2018-02-25T02:18:30.965Z,62.70
2018-02-25T02:20:59.869Z,64.87
2018-02-25T02:23:28.755Z,65.85
2018-02-25T02:25:57.565Z,64.56
2018-02-25T02:28:26.702Z,66.22
2018-02-25T02:30:55.830Z,65.53
2018-02-25T02:33:24.732Z,63.47
2018-02-25T02:35:53.638Z,63.56
2018-02-25T02:38:22.512Z,64.76
2018-02-25T02:40:51.317Z,65.07
2018-02-25T02:43:20.124Z,64.23
2018-02-25T02:45:48.970Z,64.27
2018-02-25T02:48:18.052Z,65.91
2018-02-25T02:50:46.966Z,67.24
2018-02-25T02:53:15.860Z,66.87
2018-02-25T02:55:44.954Z,65.15
2018-02-25T02:58:14.043Z,64.00
2018-02-25T03:00:42.871Z,63.56
2018-02-25T03:03:11.654Z,62.21
2018-02-25T03:05:40.686Z,62.09
2018-02-25T03:08:09.582Z,61.38
2018-02-25T03:10:38.520Z,61.85
2018-02-25T03:13:07.388Z,62.24
2018-02-25T03:15:36.242Z,62.54
2018-02-25T03:18:05.161Z,62.87
2018-02-25T03:20:33.967Z,63.12
2018-02-25T03:23:02.741Z,62.27
2018-02-25T03:25:31.587Z,63.23
2018-02-25T03:28:00.698Z,61.78
2018-02-25T03:30:29.621Z,62.35
2018-02-25T03:32:58.385Z,63.23
2018-02-25T03:35:27.392Z,63.13
2018-02-25T03:37:56.271Z,63.70
2018-02-25T03:40:25.170Z,63.27
2018-02-25T03:42:54.062Z,63.16
2018-02-25T03:45:23.154Z,63.26
2018-02-25T03:47:51.905Z,63.93
2018-02-25T03:50:20.709Z,63.77
2018-02-25T03:52:49.626Z,64.54
2018-02-25T03:55:18.734Z,64.10
2018-02-25T03:57:47.336Z,63.87
2018-02-25T04:00:16.212Z,63.35
2018-02-25T04:02:45.188Z,65.16
2018-02-25T04:05:14.089Z,64.02
2018-02-25T04:07:42.978Z,64.75
2018-02-25T04:10:11.854Z,63.82
2018-02-25T04:12:40.779Z,63.61
2018-02-25T04:15:09.638Z,64.35
2018-02-25T04:17:39.355Z,65.32
2018-02-25T04:20:08.498Z,65.08
2018-02-25T04:22:37.325Z,64.52
2018-02-25T04:25:06.200Z,64.20
2018-02-25T04:27:35.324Z,64.93
2018-02-25T04:30:04.210Z,65.25
2018-02-25T04:32:32.975Z,65.10
2018-02-25T04:35:01.964Z,65.98
2018-02-25T04:37:30.879Z,66.03
2018-02-25T04:39:59.781Z,66.21
2018-02-25T04:42:28.875Z,67.06
2018-02-25T04:44:57.646Z,66.38
2018-02-25T04:47:29.520Z,67.16
2018-02-25T04:49:58.266Z,66.87
2018-02-25T04:52:27.011Z,68.04
2018-02-25T04:54:56.402Z,67.46
2018-02-25T04:57:25.480Z,67.39
2018-02-25T04:59:54.374Z,68.47
2018-02-25T05:05:18.720Z,68.66
2018-02-25T05:07:47.162Z,69.47
2018-02-25T05:10:15.601Z,69.20
2018-02-25T05:12:44.092Z,68.56
2018-02-25T05:15:12.687Z,68.55
2018-02-25T05:17:44.055Z,68.82
2018-02-25T05:20:12.507Z,68.90
2018-02-25T05:22:40.932Z,69.80
2018-02-25T05:25:09.564Z,71.77
2018-02-25T05:27:38.075Z,71.80
2018-02-25T05:30:06.769Z,70.78
2018-02-25T05:32:35.311Z,71.75
2018-02-25T05:35:03.767Z,70.21
2018-02-25T05:37:32.202Z,73.00
2018-02-25T05:40:00.703Z,74.04
2018-02-25T05:42:29.235Z,73.24
2018-02-25T05:44:57.687Z,73.10
2018-02-25T05:47:26.174Z,73.29
2018-02-25T05:49:54.621Z,73.46
2018-02-25T05:52:23.110Z,73.43
2018-02-25T05:54:51.672Z,73.49
2018-02-25T05:57:20.206Z,73.20
2018-02-25T05:59:48.785Z,74.13
2018-02-25T06:02:17.312Z,71.80
2018-02-25T06:04:45.843Z,71.42
2018-02-25T06:07:14.416Z,73.41
2018-02-25T06:09:42.798Z,74.35
2018-02-25T06:12:11.332Z,74.62
2018-02-25T06:14:39.859Z,72.79
2018-02-25T06:17:08.580Z,73.49
2018-02-25T06:19:37.003Z,71.90
2018-02-25T06:22:05.600Z,73.49
2018-02-25T06:24:34.202Z,72.32
2018-02-25T06:27:02.712Z,72.58
2018-02-25T06:29:31.194Z,72.32
2018-02-25T06:31:59.699Z,73.68
2018-02-25T06:34:28.324Z,73.60
2018-02-25T06:36:56.795Z,73.85
2018-02-25T06:39:25.219Z,73.57
2018-02-25T06:41:53.707Z,72.64
2018-02-25T06:44:22.114Z,72.76
2018-02-25T06:46:50.953Z,72.02
2018-02-25T06:49:19.451Z,70.64
2018-02-25T06:51:47.956Z,69.57
2018-02-25T06:54:16.851Z,69.39
2018-02-25T06:56:45.487Z,69.17
2018-02-25T06:59:13.955Z,68.72
2018-02-25T07:01:42.452Z,68.25
2018-02-25T07:04:10.875Z,67.73
2018-02-25T07:06:39.497Z,66.87
2018-02-25T07:09:08.300Z,67.96
2018-02-25T07:11:36.754Z,67.74
2018-02-25T07:14:05.453Z,67.77
2018-02-25T07:16:35.007Z,67.45
2018-02-25T07:19:03.614Z,67.08
2018-02-25T07:21:32.111Z,67.06
2018-02-25T07:24:03.715Z,66.49
2018-02-25T07:26:32.408Z,66.07
2018-02-25T07:29:01.026Z,65.02
2018-02-25T07:31:29.620Z,65.78
2018-02-25T07:33:58.218Z,65.28
2018-02-25T07:36:26.736Z,64.92
2018-02-25T07:38:55.222Z,64.23
2018-02-25T07:41:23.869Z,63.12
2018-02-25T07:43:52.880Z,62.18
2018-02-25T07:46:21.526Z,61.79
2018-02-25T07:48:49.978Z,60.48
2018-02-25T07:51:18.698Z,58.23
2018-02-25T07:53:47.163Z,58.46
2018-02-25T07:56:15.668Z,57.25
2018-02-25T07:58:44.179Z,57.57
2018-02-25T08:01:13.012Z,56.90
2018-02-25T08:03:43.140Z,56.90
2018-02-25T08:06:13.105Z,56.60
2018-02-25T08:08:41.669Z,56.78
2018-02-25T08:11:13.673Z,56.04
2018-02-25T08:13:42.227Z,56.18
2018-02-25T08:16:10.947Z,55.16
2018-02-25T08:18:40.699Z,53.83
2018-02-25T08:21:09.464Z,54.19
2018-02-25T08:23:38.780Z,53.71
2018-02-25T08:26:07.638Z,54.17
2018-02-25T08:28:36.102Z,52.50
2018-02-25T08:31:04.640Z,52.26
2018-02-25T08:33:33.287Z,52.14
2018-02-25T08:36:01.937Z,51.56
2018-02-25T08:38:30.851Z,51.53
2018-02-25T08:40:59.506Z,50.88
2018-02-25T08:43:28.226Z,51.83
2018-02-25T08:45:56.718Z,50.84
2018-02-25T08:48:26.071Z,50.33
2018-02-25T08:50:57.675Z,49.37
2018-02-25T08:53:28.017Z,49.12
2018-02-25T08:56:00.298Z,48.31
2018-02-25T08:58:32.015Z,48.15
2018-02-25T09:01:01.759Z,47.82
2018-02-25T09:03:36.892Z,48.59
2018-02-25T09:08:48.663Z,47.64
2018-02-25T09:11:17.547Z,47.07
2018-02-25T09:13:47.406Z,46.71
2018-02-25T09:16:16.268Z,47.09
2018-02-25T09:18:45.028Z,47.08
2018-02-25T09:21:13.972Z,47.25
2018-02-25T09:23:42.544Z,45.72
2018-02-25T09:26:12.250Z,46.59
2018-02-25T09:28:40.986Z,45.53
2018-02-25T09:31:09.548Z,46.52
2018-02-25T09:33:38.472Z,47.13
2018-02-25T09:36:09.058Z,47.29
2018-02-25T09:38:38.655Z,46.50
2018-02-25T09:41:07.484Z,46.04
2018-02-25T09:43:36.471Z,45.54
2018-02-25T09:46:04.963Z,46.86
2018-02-25T09:48:33.696Z,46.98
2018-02-25T09:51:02.264Z,47.58
2018-02-25T09:53:30.828Z,46.88
2018-02-25T09:56:03.560Z,47.66
2018-02-25T09:58:33.272Z,46.78
2018-02-25T10:01:03.464Z,46.08
2018-02-25T10:03:34.551Z,45.01
2018-02-25T10:06:03.306Z,44.86
2018-02-25T10:08:32.783Z,45.30
2018-02-25T10:11:01.328Z,44.67
2018-02-25T10:13:30.425Z,43.28
2018-02-25T10:16:01.121Z,43.74
2018-02-25T10:18:29.894Z,43.45
2018-02-25T10:20:58.639Z,43.24
2018-02-25T10:23:27.170Z,41.84
2018-02-25T10:25:56.293Z,42.95
2018-02-25T10:28:25.583Z,42.74
2018-02-25T10:30:54.480Z,43.28
2018-02-25T10:33:25.214Z,42.82
2018-02-25T10:35:54.511Z,42.75
2018-02-25T10:38:25.686Z,42.39
2018-02-25T10:40:54.373Z,42.58
2018-02-25T10:43:31.705Z,41.70
2018-02-25T10:46:00.923Z,41.72
2018-02-25T10:48:32.841Z,41.37
2018-02-25T10:51:04.737Z,42.84
2018-02-25T10:53:33.810Z,42.32
2018-02-25T10:56:03.709Z,40.66
2018-02-25T10:58:33.776Z,36.52
2018-02-25T11:01:09.617Z,36.90
2018-02-25T11:03:44.313Z,37.46
2018-02-25T11:06:15.283Z,37.42
2018-02-25T11:08:44.305Z,36.23
2018-02-25T11:11:14.008Z,34.37
2018-02-25T11:13:44.736Z,33.05
2018-02-25T11:16:15.440Z,33.27
2018-02-25T11:18:47.767Z,32.18
2018-02-25T11:21:19.269Z,32.66
2018-02-25T11:23:50.515Z,32.86
2018-02-25T11:26:20.075Z,32.79
2018-02-25T11:28:50.453Z,31.79
2018-02-25T11:31:31.882Z,30.64
2018-02-25T11:34:04.615Z,31.08
2018-02-25T11:36:38.384Z,31.44
2018-02-25T11:39:08.319Z,33.55
2018-02-25T11:41:37.039Z,33.13
2018-02-25T11:44:07.971Z,31.53
2018-02-25T11:46:50.747Z,31.13
2018-02-25T11:49:29.405Z,30.49
2018-02-25T11:52:04.781Z,32.68
2018-02-25T11:54:46.253Z,33.36
2018-02-25T11:57:17.550Z,35.42
2018-02-25T11:59:49.513Z,34.80
2018-02-25T12:02:21.770Z,34.01
2018-02-25T12:04:51.427Z,34.73
2018-02-25T12:07:23.876Z,32.94
2018-02-25T12:09:53.721Z,28.03
2018-02-25T12:12:23.410Z,27.10
2018-02-25T12:14:59.271Z,29.40
2018-02-25T12:17:22.417Z,27.88
2018-02-25T12:19:51.036Z,27.53
2018-02-25T12:22:19.796Z,27.86
2018-02-25T12:24:49.239Z,28.54
2018-02-25T12:27:18.556Z,30.61
2018-02-25T12:29:47.866Z,31.98
2018-02-25T12:32:16.543Z,30.81
2018-02-25T12:34:45.456Z,31.08
2018-02-25T12:37:17.292Z,29.13
2018-02-25T12:39:45.869Z,33.49
2018-02-25T12:42:14.762Z,34.06
2018-02-25T12:44:44.527Z,36.33
2018-02-25T12:47:19.118Z,37.22
2018-02-25T12:49:48.602Z,33.84
2018-02-25T12:52:19.440Z,33.17
2018-02-25T12:54:48.132Z,32.63
2018-02-25T12:57:16.968Z,32.35
2018-02-25T12:59:48.234Z,32.20
2018-02-25T13:02:17.610Z,34.61
2018-02-25T13:04:50.885Z,33.68
2018-02-25T13:07:21.362Z,32.92
2018-02-25T13:09:50.161Z,34.37
2018-02-25T13:12:19.001Z,34.91
2018-02-25T13:14:47.959Z,34.37
2018-02-25T13:17:16.714Z,32.36
2018-02-25T13:19:46.207Z,32.30
2018-02-25T13:22:15.203Z,34.20
2018-02-25T13:24:44.238Z,34.67
2018-02-25T13:27:23.979Z,33.02
2018-02-25T13:30:00.328Z,33.56
2018-02-25T13:32:30.097Z,31.87
2018-02-25T13:35:00.920Z,33.59
2018-02-25T13:37:30.317Z,33.17
2018-02-25T13:40:02.329Z,33.50
2018-02-25T13:42:32.677Z,35.05
2018-02-25T13:45:01.917Z,34.42
2018-02-25T13:47:31.631Z,37.58
2018-02-25T13:50:01.138Z,33.63
2018-02-25T13:52:32.079Z,37.16
2018-02-25T13:55:01.721Z,39.35
2018-02-25T13:57:32.881Z,39.97
2018-02-25T14:00:04.903Z,40.16
2018-02-25T14:02:36.847Z,39.82
2018-02-25T14:05:09.617Z,39.02
2018-02-25T14:07:43.063Z,39.59
2018-02-25T14:10:18.068Z,38.76
2018-02-25T14:12:47.349Z,40.43
2018-02-25T14:15:17.224Z,39.27
2018-02-25T14:17:54.837Z,39.72
2018-02-25T14:20:24.355Z,39.16
2018-02-25T14:22:52.915Z,39.06
2018-02-25T14:25:22.446Z,40.60
2018-02-25T14:27:51.220Z,39.58
2018-02-25T14:30:20.934Z,40.85
2018-02-25T14:32:49.980Z,40.45
2018-02-25T14:35:19.588Z,39.81
2018-02-25T14:37:49.462Z,39.81
2018-02-25T14:40:19.710Z,41.57
2018-02-25T14:42:50.165Z,41.16
2018-02-25T14:45:19.927Z,41.70
2018-02-25T14:47:49.542Z,42.50
2018-02-25T14:50:19.602Z,41.52
2018-02-25T14:52:49.317Z,42.25
2018-02-25T14:55:21.531Z,41.82
2018-02-25T14:57:54.653Z,41.36
2018-02-25T15:00:23.794Z,41.31
2018-02-25T15:02:53.738Z,40.44
2018-02-25T15:05:22.858Z,41.21
2018-02-25T15:07:52.996Z,40.71
2018-02-25T15:10:29.522Z,41.19
2018-02-25T15:13:02.094Z,41.58
2018-02-25T15:15:32.099Z,42.94
2018-02-25T15:18:15.064Z,43.55
2018-02-25T15:20:53.007Z,43.18
2018-02-25T15:23:30.803Z,43.15
2018-02-25T15:26:10.458Z,42.80
2018-02-25T15:28:49.175Z,43.15
2018-02-25T15:31:25.846Z,43.26
2018-02-25T15:34:02.344Z,42.75
2018-02-25T15:36:37.780Z,43.30
2018-02-25T15:39:25.763Z,43.67
2018-02-25T15:41:57.526Z,44.31
2018-02-25T15:44:26.360Z,43.81
2018-02-25T15:46:56.445Z,44.70
2018-02-25T15:49:26.091Z,44.11
2018-02-25T15:51:55.718Z,44.18
2018-02-25T15:54:28.017Z,44.50
2018-02-25T15:56:59.221Z,44.15
2018-02-25T15:59:34.895Z,45.09
2018-02-25T16:02:05.618Z,44.25
2018-02-25T16:04:35.111Z,44.98
2018-02-25T16:07:05.475Z,45.43
2018-02-25T16:09:34.489Z,45.13
2018-02-25T16:12:03.607Z,44.99
2018-02-25T16:14:33.803Z,45.35
2018-02-25T16:17:04.672Z,45.62
2018-02-25T16:19:34.938Z,45.80
2018-02-25T16:22:07.222Z,45.92
2018-02-25T16:24:36.707Z,46.58
2018-02-25T16:27:06.588Z,46.67
2018-02-25T16:29:37.118Z,45.88
2018-02-25T16:32:09.981Z,46.66
2018-02-25T16:34:40.986Z,47.08
2018-02-25T16:37:10.692Z,47.03
2018-02-25T16:39:40.901Z,46.62
2018-02-25T16:42:10.796Z,46.35
2018-02-25T16:44:40.037Z,46.21
2018-02-25T16:47:12.438Z,47.85
2018-02-25T16:49:44.956Z,47.92
2018-02-25T16:52:16.403Z,48.79
2018-02-25T16:54:45.183Z,48.97
2018-02-25T16:57:16.296Z,48.27
2018-02-25T16:59:50.713Z,48.19
2018-02-25T17:02:20.527Z,48.52
2018-02-25T17:04:51.728Z,49.16
2018-02-25T17:07:23.145Z,49.82
2018-02-25T17:09:52.108Z,49.90
2018-02-25T17:12:21.196Z,50.49
2018-02-25T17:14:53.463Z,50.68
2018-02-25T17:17:22.905Z,51.49
2018-02-25T17:19:51.766Z,51.20
2018-02-25T17:22:21.057Z,51.76
2018-02-25T17:24:50.930Z,52.38
2018-02-25T17:27:20.534Z,51.90
2018-02-25T17:29:51.452Z,50.98
2018-02-25T17:32:20.120Z,51.57
2018-02-25T17:34:50.234Z,52.24
2018-02-25T17:37:22.197Z,51.25
2018-02-25T17:39:51.683Z,51.78
2018-02-25T17:42:20.878Z,52.24
2018-02-25T17:44:50.054Z,52.09
2018-02-25T17:47:21.436Z,52.30
2018-02-25T17:49:50.584Z,51.91
2018-02-25T17:52:20.258Z,52.10
2018-02-25T17:54:49.901Z,52.76
2018-02-25T17:57:18.651Z,51.99
2018-02-25T17:59:51.469Z,51.32
2018-02-25T18:02:21.569Z,51.84
2018-02-25T18:04:50.794Z,51.54
2018-02-25T18:07:20.778Z,51.85
2018-02-25T18:09:50.264Z,51.59
2018-02-25T18:12:21.890Z,51.49
2018-02-25T18:14:52.811Z,51.08
2018-02-25T18:17:22.392Z,51.35
2018-02-25T18:19:53.654Z,51.90
2018-02-25T18:22:23.205Z,52.42
2018-02-25T18:24:52.651Z,51.53
2018-02-25T18:27:22.118Z,51.40
2018-02-25T18:29:53.085Z,52.06
2018-02-25T18:32:25.754Z,52.05
2018-02-25T18:34:54.974Z,51.89
2018-02-25T18:37:25.696Z,52.74
2018-02-25T18:39:58.074Z,51.86
2018-02-25T18:42:28.298Z,51.51
2018-02-25T18:44:56.933Z,52.79
2018-02-25T18:47:27.198Z,52.58
2018-02-25T18:50:00.081Z,52.92
2018-02-25T18:52:33.537Z,53.95
2018-02-25T18:55:03.939Z,53.45
2018-02-25T18:57:32.752Z,54.09
2018-02-25T19:00:06.664Z,54.93
2018-02-25T19:02:35.490Z,54.96
2018-02-25T19:05:05.609Z,54.72
2018-02-25T19:07:37.231Z,56.03
2018-02-25T19:10:06.056Z,56.01
2018-02-25T19:12:38.392Z,55.86
2018-02-25T19:15:08.845Z,56.04
2018-02-25T19:17:39.933Z,56.25
2018-02-25T19:20:11.234Z,56.24
2018-02-25T19:22:42.294Z,56.07
2018-02-25T19:25:13.734Z,56.15
2018-02-25T19:27:45.562Z,56.60
2018-02-25T19:30:16.326Z,56.61
2018-02-25T19:32:45.727Z,57.24
2018-02-25T19:35:14.929Z,57.08
2018-02-25T19:38:46.156Z,57.14
2018-02-25T19:41:20.190Z,57.17
2018-02-25T19:43:53.948Z,57.42
2018-02-25T19:46:27.327Z,57.11
2018-02-25T19:48:57.021Z,56.70
2018-02-25T19:51:26.273Z,56.10
2018-02-25T19:53:56.133Z,56.58
2018-02-25T19:56:25.470Z,56.89
2018-02-25T19:58:57.438Z,57.27
2018-02-25T20:01:28.362Z,56.56
2018-02-25T20:03:57.183Z,56.74
2018-02-25T20:06:27.136Z,57.11
2018-02-25T20:08:58.884Z,58.23
2018-02-25T20:11:29.246Z,59.89
2018-02-25T20:13:59.486Z,60.94
2018-02-25T20:16:28.514Z,63.59
2018-02-25T20:18:57.729Z,66.72
2018-02-25T20:21:29.075Z,70.33
2018-02-25T20:23:58.119Z,73.23
2018-02-25T20:26:27.832Z,73.11
2018-02-25T20:29:02.264Z,73.76
2018-02-25T20:31:33.887Z,72.96
2018-02-25T20:34:06.550Z,74.12
2018-02-25T20:36:38.422Z,74.36
2018-02-25T20:39:10.108Z,74.08
2018-02-25T20:41:43.510Z,73.92
2018-02-25T20:44:17.792Z,73.87
2018-02-25T20:46:49.499Z,73.21
2018-02-25T20:49:19.187Z,74.89
2018-02-25T20:51:48.178Z,74.95
2018-02-25T20:54:17.304Z,77.21
2018-02-25T20:56:47.872Z,78.40
2018-02-25T20:59:18.442Z,77.82
2018-02-25T21:01:48.764Z,79.07
2018-02-25T21:04:19.180Z,78.25
2018-02-25T21:07:00.335Z,77.72
2018-02-25T21:09:36.702Z,77.13
2018-02-25T21:12:05.695Z,77.33
2018-02-25T21:14:35.047Z,77.24
2018-02-25T21:17:03.823Z,77.21
2018-02-25T21:19:35.181Z,76.94
2018-02-25T21:22:05.366Z,76.66
2018-02-25T21:24:35.018Z,75.26
2018-02-25T21:27:04.723Z,75.01
2018-02-25T21:29:33.951Z,74.72
2018-02-25T21:32:02.965Z,75.16
2018-02-25T21:34:31.530Z,74.36
2018-02-25T21:37:02.716Z,74.19
2018-02-25T21:39:31.719Z,76.50
2018-02-25T21:42:00.654Z,77.60
2018-02-25T21:44:29.548Z,78.41
2018-02-25T21:47:00.959Z,77.98
2018-02-25T21:49:29.776Z,76.29
2018-02-25T21:51:58.501Z,76.09
2018-02-25T21:54:31.131Z,75.93
2018-02-25T21:59:06.769Z,75.05
2018-02-25T22:01:41.728Z,75.82
2018-02-25T22:04:13.536Z,75.71
2018-02-25T22:06:44.132Z,74.60
2018-02-25T22:09:13.366Z,72.96
2018-02-25T22:11:42.342Z,71.37
2018-02-25T22:14:12.413Z,71.50
2018-02-25T22:16:41.699Z,71.28
2018-02-25T22:19:10.297Z,71.58
2018-02-25T22:21:39.176Z,70.35
2018-02-25T22:24:07.693Z,70.97
2018-02-25T22:26:36.287Z,70.50
2018-02-25T22:29:05.046Z,70.80
2018-02-25T22:31:33.784Z,71.50
2018-02-25T22:34:03.369Z,72.36
2018-02-25T22:36:32.191Z,71.78
2018-02-25T22:39:00.722Z,71.59
2018-02-25T22:41:29.797Z,71.84
2018-02-25T22:43:59.796Z,73.07
2018-02-25T22:46:28.403Z,72.72
2018-02-25T22:48:56.903Z,72.59
2018-02-25T22:51:25.424Z,72.57
2018-02-25T22:53:54.820Z,72.53
2018-02-25T22:56:23.537Z,74.03
2018-02-25T22:58:52.532Z,74.53
2018-02-25T23:01:22.002Z,74.81
2018-02-25T23:03:51.643Z,75.25
2018-02-25T23:06:20.292Z,74.74
2018-02-25T23:08:48.813Z,75.52
2018-02-25T23:11:17.280Z,75.88
2018-02-25T23:13:46.107Z,76.41
2018-02-25T23:16:15.336Z,75.99
2018-02-25T23:18:43.819Z,76.56
2018-02-25T23:21:12.348Z,76.98
2018-02-25T23:23:40.790Z,77.96
2018-02-25T23:26:09.802Z,78.08
2018-02-25T23:28:38.626Z,77.33
2018-02-25T23:31:07.167Z,77.96
2018-02-25T23:33:35.608Z,77.92
2018-02-25T23:36:04.165Z,78.31
2018-02-25T23:38:39.671Z,77.66
2018-02-25T23:41:11.245Z,76.74
2018-02-25T23:43:39.969Z,76.51
2018-02-25T23:46:08.615Z,75.48
2018-02-25T23:48:37.314Z,75.11
2018-02-25T23:51:05.863Z,75.45
2018-02-25T23:53:34.579Z,75.41
2018-02-25T23:56:03.323Z,75.49
2018-02-25T23:58:31.832Z,76.05
